Lida, Nevada
Current Conditions -  °F | °C
As of 2:56 PM on Tuesday 21 Oct 2014 (Local Time) from KTPH Reporting Station
Clear Clear  
Wind Chill: 65°   Ceiling: Unl
Heat Index: 65°   Visibility: 10mi
Dew Point:   Wind: 17mph
Humidity: 9%   Direction: 340°NNW
Pressure: 30.01"   Gusts: 28mph
Location:  37.7558°N, 117.435°W
Report Text: KTPH 212156Z AUTO 34015G24KT 10SM CLR 18/M15 A3001 RMK AO2 SLP119 T01831150
Loading
Personal Weather Stations






























Interactive Weather Map
Tropical Storm Tracking
New forecast layout! Learn more

10-Day Weather Forecast

Advertisements
Track Severe Weather on mobile